Time;durP1;ratioP1;P1;durP2;ratioP2;P2;SDS_P1;SDS_P2;PMS_P1;PMS_P2;Temp;Humidity;BMP_temperature;BMP_pressure;BME280_temperature;BME280_humidity;BME280_pressure;Samples;Min_cycle;Max_cycle;Signal;HPM_P1;HPM_P2
2022/03/31 00:05:16;;;;;;;;;34.67;30.00;;;;;12.09;50.71;99488.28;4867252;29;45630;-81
2022/03/31 00:08:13;;;;;;;;;35.33;29.33;;;;;12.42;50.64;99557.25;4919473;28;47130;-82
2022/03/31 00:21:58;;;;;;;;;;;;;;;;;;;;;
2022/03/31 00:26:00;;;;;;;;;;;;;;;;;;;;;
2022/03/31 00:32:45;;;;;;;;;37.33;29.33;;;;;12.32;51.60;99553.25;4809377;29;45392;-82
2022/03/31 00:35:21;;;;;;;;;35.00;31.00;;;;;12.02;51.57;99512.38;4820642;29;45868;-81
2022/03/31 00:42:05;;;;;;;;;44.33;32.67;;;;;12.03;51.61;99511.28;4953633;28;45576;-82
2022/03/31 00:49:16;;;;;;;;;;;;;;;;;;;;;
2022/03/31 00:58:25;;;;;;;;;35.33;30.33;;;;;11.76;52.15;99486.31;4920627;28;45860;-82
2022/03/31 01:05:15;;;;;;;;;44.33;33.33;;;;;11.97;52.38;99520.50;4870913;29;45866;-82
2022/03/31 01:08:23;;;;;;;;;39.33;30.67;;;;;11.94;52.42;99529.25;4866807;28;45852;-82
2022/03/31 01:10:58;;;;;;;;;32.00;29.67;;;;;11.53;53.04;99462.59;4917011;28;46573;-81
2022/03/31 01:13:29;;;;;;;;;40.33;32.67;;;;;11.89;52.97;99527.22;5014431;28;45847;-80
2022/03/31 01:15:55;;;;;;;;;42.00;33.00;;;;;11.71;52.90;99503.56;5015881;28;45463;-82
2022/03/31 01:18:25;;;;;;;;;44.67;32.00;;;;;11.76;53.20;99522.84;5015703;28;45392;-82
2022/03/31 01:20:53;;;;;;;;;38.67;33.00;;;;;11.39;53.49;99467.53;5017282;28;45864;-82
2022/03/31 01:23:20;;;;;;;;;45.67;35.00;;;;;11.38;53.56;99479.63;5017885;28;46752;-81
2022/03/31 01:25:49;;;;;;;;;37.33;32.00;;;;;11.53;53.93;99499.09;5036196;28;45352;-82
2022/03/31 01:28:17;;;;;;;;;42.00;33.50;;;;;11.58;53.55;99515.66;5030942;28;45393;-81
2022/03/31 01:30:43;;;;;;;;;41.00;32.75;;;;;11.36;53.65;99479.00;5031529;28;45729;-83
2022/03/31 01:33:54;;;;;;;;;43.33;34.33;;;;;11.09;54.17;99449.41;5015132;28;46764;-81
2022/03/31 01:35:55;;;;;;;;;34.67;30.33;;;;;11.35;54.49;99488.31;5035260;28;45458;-85
2022/03/31 01:38:20;;;;;;;;;48.00;36.00;;;;;11.08;54.28;99442.25;5028862;28;45701;-82
2022/03/31 01:40:46;;;;;;;;;43.67;33.67;;;;;11.16;53.95;99463.81;5039695;28;45347;-82
2022/03/31 01:43:19;;;;;;;;;45.67;34.67;;;;;11.24;54.00;99470.81;5021532;28;47882;-81
2022/03/31 01:46:30;;;;;;;;;34.67;30.00;;;;;11.19;54.74;99460.56;5028956;28;45674;-82
2022/03/31 01:48:40;;;;;;;;;41.75;33.00;;;;;10.97;54.83;99446.69;5027687;28;45921;-82
2022/03/31 01:51:08;;;;;;;;;40.00;32.33;;;;;11.30;54.90;99491.78;5035544;28;45856;-79
2022/03/31 01:53:36;;;;;;;;;43.75;35.25;;;;;11.29;55.13;99493.72;5035494;28;45643;-80
2022/03/31 01:56:11;;;;;;;;;49.67;38.33;;;;;11.06;54.54;99447.16;5013066;28;45594;-82
2022/03/31 01:59:00;;;;;;;;;47.00;37.75;;;;;11.24;55.17;99473.56;5008517;28;45852;-82
2022/03/31 02:01:27;;;;;;;;;37.00;31.75;;;;;10.93;55.15;99426.34;4952236;28;45836;-82
2022/03/31 02:03:52;;;;;;;;;47.75;37.75;;;;;10.88;55.19;99424.31;5002004;28;47472;-82
2022/03/31 02:06:44;;;;;;;;;45.25;37.50;;;;;11.14;55.29;99463.22;5017011;28;45702;-82
2022/03/31 02:09:13;;;;;;;;;49.75;36.00;;;;;10.84;55.72;99433.25;4964468;28;45450;-81
2022/03/31 02:11:45;;;;;;;;;48.25;38.00;;;;;10.87;55.31;99450.06;5034489;28;45841;-82
2022/03/31 02:14:17;;;;;;;;;47.00;35.75;;;;;10.79;55.93;99436.72;5033777;28;46166;-82
2022/03/31 02:16:55;;;;;;;;;49.00;38.25;;;;;10.89;55.82;99458.06;5015841;28;45821;-83
2022/03/31 02:19:27;;;;;;;;;48.25;37.00;;;;;10.56;55.76;99421.19;5035484;28;45691;-81
2022/03/31 02:22:01;;;;;;;;;43.00;33.00;;;;;10.75;56.33;99454.75;5016935;28;45839;-81
2022/03/31 02:24:43;;;;;;;;;48.50;37.00;;;;;10.66;56.43;99451.56;5032723;28;48053;-81
2022/03/31 02:30:12;;;;;;;;;43.75;35.00;;;;;10.24;56.21;99405.13;4943507;28;45637;-82
2022/03/31 02:32:38;;;;;;;;;50.50;37.50;;;;;10.68;56.28;99474.06;5032404;28;45402;-82
2022/03/31 02:35:08;;;;;;;;;48.75;37.25;;;;;10.61;56.76;99467.88;5037129;28;45429;-81
2022/03/31 02:37:37;;;;;;;;;41.75;36.00;;;;;10.19;57.27;99410.47;5034822;28;45523;-83
2022/03/31 02:40:12;;;;;;;;;52.50;38.75;;;;;10.54;56.89;99472.69;5033904;28;45396;-82
2022/03/31 02:42:38;;;;;;;;;47.50;36.50;;;;;10.08;57.33;99393.78;5019781;28;46063;-81
2022/03/31 02:48:09;;;;;;;;;47.00;37.00;;;;;10.12;56.88;99407.88;5033460;28;45751;-81
2022/03/31 02:50:37;;;;;;;;;44.50;35.75;;;;;10.48;57.36;99476.34;5028237;28;45428;-82
2022/03/31 02:56:00;;;;;;;;;46.00;35.00;;;;;10.08;56.80;99403.94;5034829;28;45533;-81
2022/03/31 02:58:25;;;;;;;;;49.75;39.50;;;;;10.52;57.33;99469.34;5013648;28;45622;-80
2022/03/31 03:00:54;;;;;;;;;53.50;39.00;;;;;10.11;56.33;99410.84;5014171;28;45363;-81
2022/03/31 03:03:20;;;;;;;;;49.50;37.00;;;;;10.21;56.42;99413.81;5013083;28;45711;-82
2022/03/31 03:05:46;;;;;;;;;46.50;36.75;;;;;10.23;56.16;99415.22;5012003;28;46182;-82
2022/03/31 03:08:21;;;;;;;;;53.25;39.25;;;;;10.44;56.68;99456.84;5013140;28;45959;-81
2022/03/31 03:11:02;;;;;;;;;52.50;38.75;;;;;10.32;56.45;99421.19;5014650;28;45592;-83
2022/03/31 03:13:28;;;;;;;;;49.25;38.75;;;;;10.28;56.40;99413.69;5004140;28;45728;-82
2022/03/31 03:15:54;;;;;;;;;49.50;37.00;;;;;10.35;56.15;99420.72;5015952;28;45775;-82
2022/03/31 03:18:23;;;;;;;;;48.50;37.25;;;;;10.40;56.31;99423.59;5023849;28;45693;-81
2022/03/31 03:20:48;;;;;;;;;51.75;40.00;;;;;10.30;56.22;99398.69;5033305;28;45427;-81
2022/03/31 03:23:14;;;;;;;;;53.25;39.50;;;;;10.29;55.90;99396.19;5030742;28;45743;-81
2022/03/31 03:25:43;;;;;;;;;54.00;42.50;;;;;10.30;55.63;99382.25;5015100;28;46739;-84
2022/03/31 03:28:11;;;;;;;;;50.75;39.00;;;;;10.34;55.46;99390.84;5032295;28;45822;-83
2022/03/31 03:30:37;;;;;;;;;56.00;40.75;;;;;10.66;55.68;99448.81;5032535;28;45901;-82
2022/03/31 03:33:12;;;;;;;;;;;;;;;;;;;;;
2022/03/31 03:35:42;;;;;;;;;48.25;37.00;;;;;10.01;56.04;99340.22;5035462;28;74581;-83
2022/03/31 03:38:10;;;;;;;;;53.25;40.75;;;;;10.57;56.02;99431.91;5032995;28;45459;-82
2022/03/31 03:40:38;;;;;;;;;49.25;38.75;;;;;10.51;55.75;99443.00;5033307;28;45927;-82
2022/03/31 03:43:04;;;;;;;;;48.00;39.00;;;;;10.50;55.72;99430.38;5030984;28;45467;-80
2022/03/31 03:45:30;;;;;;;;;54.25;42.50;;;;;10.39;55.97;99427.41;5024807;28;45923;-75
2022/03/31 03:47:55;;;;;;;;;46.25;37.75;;;;;10.41;56.04;99432.66;5024871;28;45577;-75
2022/03/31 03:50:21;;;;;;;;;51.00;40.00;;;;;10.42;56.23;99431.59;5026516;28;45670;-76
2022/03/31 03:52:46;;;;;;;;;51.25;40.50;;;;;10.43;55.86;99430.50;5014985;28;45742;-77
2022/03/31 03:55:12;;;;;;;;;51.25;40.25;;;;;10.43;55.80;99433.22;5024099;28;45541;-75
2022/03/31 03:57:38;;;;;;;;;50.50;39.75;;;;;10.35;55.64;99423.47;5021045;28;46839;-79
2022/03/31 04:00:05;;;;;;;;;51.75;40.00;;;;;10.38;55.60;99439.44;5030770;28;45429;-80
2022/03/31 04:02:43;;;;;;;;;45.75;37.50;;;;;10.38;55.46;99442.19;5023183;28;45557;-83
2022/03/31 04:05:11;;;;;;;;;51.00;38.50;;;;;10.39;55.22;99443.84;5024236;28;45487;-82
2022/03/31 04:07:45;;;;;;;;;55.00;41.25;;;;;10.35;55.14;99433.63;5037801;28;45442;-83
2022/03/31 04:10:17;;;;;;;;;50.00;38.25;;;;;10.31;55.05;99435.94;5041316;28;45309;-83
2022/03/31 04:12:43;;;;;;;;;52.00;41.25;;;;;10.35;55.04;99442.66;5041248;28;45901;-81
2022/03/31 04:15:12;;;;;;;;;51.00;37.75;;;;;9.97;55.63;99391.91;5018157;28;45492;-82
2022/03/31 04:17:50;;;;;;;;;47.50;37.50;;;;;10.26;55.62;99433.09;5024516;28;45615;-81
2022/03/31 04:21:01;;;;;;;;;53.50;41.50;;;;;10.18;55.43;99447.16;5027524;28;45637;-83
2022/03/31 04:27:09;;;;;;;;;51.75;41.00;;;;;10.09;55.77;99443.97;4994622;28;45387;-83
2022/03/31 04:29:38;;;;;;;;;49.00;40.00;;;;;9.38;55.64;99347.25;4974043;28;45545;-83
2022/03/31 04:32:04;;;;;;;;;55.00;44.50;;;;;9.95;56.06;99435.13;4990890;28;45614;-82
2022/03/31 04:34:30;;;;;;;;;59.75;46.25;;;;;9.88;56.07;99438.00;5014033;28;45683;-81
2022/03/31 04:37:30;;;;;;;;;61.25;46.00;;;;;9.93;55.75;99439.19;5023549;28;48249;-80
2022/03/31 04:40:32;;;;;;;;;55.25;41.00;;;;;9.81;55.83;99426.31;4983953;28;45571;-82
2022/03/31 04:43:09;;;;;;;;;50.75;40.50;;;;;9.98;55.44;99442.03;4993877;28;45793;-82
2022/03/31 04:45:35;;;;;;;;;50.50;41.50;;;;;9.55;55.36;99383.81;5032676;28;46070;-81
2022/03/31 04:48:04;;;;;;;;;58.50;44.75;;;;;9.83;56.36;99442.50;5025545;28;45531;-80
2022/03/31 04:50:29;;;;;;;;;54.75;42.25;;;;;9.56;55.58;99395.56;5034415;28;45706;-79
2022/03/31 04:53:21;;;;;;;;;59.25;45.00;;;;;9.64;55.58;99407.00;5032704;28;45549;-82
2022/03/31 04:55:49;;;;;;;;;55.00;42.50;;;;;9.76;55.88;99428.06;4933824;28;45430;-83
2022/03/31 04:58:15;;;;;;;;;53.75;43.00;;;;;9.70;55.96;99424.38;4998547;28;46852;-82
2022/03/31 05:00:40;;;;;;;;;58.75;43.50;;;;;9.66;56.09;99429.50;5031155;28;45561;-81
2022/03/31 05:03:11;;;;;;;;;55.50;42.75;;;;;9.63;56.35;99429.97;5021596;28;45554;-83
2022/03/31 05:09:26;;;;;;;;;53.75;42.50;;;;;9.60;55.78;99446.03;5029524;28;45522;-81
2022/03/31 05:11:51;;;;;;;;;54.50;42.50;;;;;9.19;56.38;99374.66;5010580;28;45570;-81
2022/03/31 05:14:17;;;;;;;;;56.25;44.00;;;;;9.40;56.88;99416.22;5019099;28;45391;-82
2022/03/31 05:16:42;;;;;;;;;64.75;46.75;;;;;9.32;56.78;99412.75;5008383;28;45973;-83
2022/03/31 05:19:12;;;;;;;;;58.50;43.50;;;;;9.36;56.82;99418.63;5027560;28;45964;-81
2022/03/31 05:21:43;;;;;;;;;56.25;45.00;;;;;9.21;56.85;99413.56;5021443;28;45408;-81
2022/03/31 05:24:17;;;;;;;;;60.75;45.75;;;;;9.10;57.31;99389.72;5002415;28;46175;-83
2022/03/31 05:26:43;;;;;;;;;54.25;43.75;;;;;9.18;57.36;99408.56;5023490;28;45538;-82
2022/03/31 05:29:14;;;;;;;;;57.75;43.50;;;;;9.51;57.12;99453.75;5027379;28;46682;-83
2022/03/31 05:31:43;;;;;;;;;58.25;46.00;;;;;9.29;57.13;99423.34;5016129;28;45475;-85
2022/03/31 05:38:03;;;;;;;;;;;;;;;;;;;;;
2022/03/31 05:40:55;;;;;;;;;61.50;46.25;;;;;9.55;57.73;99471.38;4971886;28;73544;-83
2022/03/31 05:43:24;;;;;;;;;58.75;44.75;;;;;9.19;57.92;99408.34;4971879;28;45528;-83
2022/03/31 05:46:44;;;;;;;;;63.00;48.25;;;;;9.50;57.14;99457.53;4973401;28;45540;-86
2022/03/31 05:49:26;;;;;;;;;61.25;47.75;;;;;9.55;57.01;99454.97;4941524;28;45057;-83
2022/03/31 05:52:02;;;;;;;;;65.25;48.75;;;;;9.48;57.14;99426.84;4974462;28;47630;-83
2022/03/31 05:57:55;;;;;;;;;61.00;45.25;;;;;9.74;57.02;99457.59;5239866;22;45462;-87
2022/03/31 06:00:21;;;;;;;;;63.75;46.25;;;;;9.88;57.72;99475.50;5057144;28;46353;-88
2022/03/31 06:02:48;;;;;;;;;66.00;50.50;;;;;9.54;56.73;99409.50;5047493;28;45634;-87
2022/03/31 06:05:14;;;;;;;;;64.75;49.50;;;;;9.94;56.90;99454.53;5057589;28;45564;-86
2022/03/31 06:07:41;;;;;;;;;66.75;45.25;;;;;10.25;57.29;99478.88;5047570;28;45489;-87
2022/03/31 06:10:08;;;;;;;;;63.50;47.25;;;;;10.11;55.71;99446.47;5066046;28;45372;-88
2022/03/31 06:12:37;;;;;;;;;69.25;50.75;;;;;10.48;56.19;99496.41;5037449;28;46096;-87
2022/03/31 06:15:07;;;;;;;;;63.50;46.00;;;;;10.25;55.72;99431.44;5048987;28;45511;-84
2022/03/31 06:17:33;;;;;;;;;64.00;49.50;;;;;10.67;55.13;99491.59;5043810;28;45450;-82
2022/03/31 06:19:59;;;;;;;;;63.00;48.75;;;;;10.78;55.34;99496.25;5024961;28;46713;-81
2022/03/31 06:22:26;;;;;;;;;67.75;49.50;;;;;10.84;54.84;99490.84;5047818;28;46689;-84
2022/03/31 06:24:51;;;;;;;;;60.25;47.00;;;;;10.90;54.62;99489.91;5052073;28;45467;-86
2022/03/31 06:27:17;;;;;;;;;60.25;45.75;;;;;10.95;54.29;99488.09;5053395;28;45578;-84
2022/03/31 06:29:46;;;;;;;;;58.75;44.25;;;;;11.03;54.34;99486.91;5057098;28;45429;-82
2022/03/31 06:32:15;;;;;;;;;59.25;46.00;;;;;11.07;54.63;99485.31;5036386;28;46114;-82
2022/03/31 06:34:44;;;;;;;;;63.00;47.25;;;;;11.21;54.46;99488.63;5049465;28;45560;-83
2022/03/31 06:37:13;;;;;;;;;56.50;44.50;;;;;11.19;53.62;99471.56;5057885;28;45775;-84
2022/03/31 06:39:39;;;;;;;;;63.00;47.50;;;;;11.41;53.19;99487.34;5058860;28;44897;-78
2022/03/31 06:42:05;;;;;;;;;69.50;49.00;;;;;11.40;52.79;99469.22;5036249;28;47366;-85
2022/03/31 06:44:31;;;;;;;;;48.25;33.75;;;;;11.45;52.83;99445.44;5031705;28;45743;-81
2022/03/31 06:46:57;;;;;;;;;60.75;45.00;;;;;11.66;52.49;99485.06;5044556;28;46641;-84
2022/03/31 06:49:23;;;;;;;;;59.25;44.75;;;;;11.70;52.17;99468.91;5051532;28;45916;-85
2022/03/31 06:51:53;;;;;;;;;58.25;43.75;;;;;11.85;51.40;99482.09;5034863;28;47359;-81
2022/03/31 06:54:18;;;;;;;;;62.25;47.00;;;;;11.84;51.35;99475.78;5036269;28;45958;-87
2022/03/31 06:56:46;;;;;;;;;56.75;46.25;;;;;11.87;51.51;99487.34;5044267;28;45815;-84
2022/03/31 06:59:12;;;;;;;;;54.50;42.75;;;;;11.79;51.26;99477.59;5052798;28;45486;-85
2022/03/31 07:01:37;;;;;;;;;53.25;43.50;;;;;11.87;51.70;99490.06;5056380;28;45439;-83
2022/03/31 07:04:07;;;;;;;;;58.25;43.50;;;;;11.87;51.18;99479.09;5038554;28;45617;-86
2022/03/31 07:06:35;;;;;;;;;56.50;43.75;;;;;11.81;50.96;99473.53;5035638;28;45482;-82
2022/03/31 07:09:00;;;;;;;;;55.50;43.00;;;;;11.84;51.57;99467.53;5048351;28;45715;-84
2022/03/31 07:11:26;;;;;;;;;57.00;44.25;;;;;11.84;52.26;99459.28;5027116;28;46690;-82
2022/03/31 07:13:52;;;;;;;;;53.75;42.75;;;;;12.01;51.72;99483.22;5056918;28;45414;-85
2022/03/31 07:16:18;;;;;;;;;60.25;45.50;;;;;11.92;51.80;99476.44;5056176;28;45436;-85
2022/03/31 07:18:43;;;;;;;;;61.50;47.25;;;;;12.04;51.65;99492.88;5055441;28;45580;-84
2022/03/31 07:21:09;;;;;;;;;53.50;43.50;;;;;11.99;52.33;99486.22;5052120;28;47202;-85
2022/03/31 07:23:41;;;;;;;;;56.75;43.50;;;;;12.07;51.85;99495.13;5047858;28;45510;-77
2022/03/31 07:26:08;;;;;;;;;56.00;42.75;;;;;12.12;51.53;99490.53;5073585;28;45893;-79
2022/03/31 07:28:34;;;;;;;;;51.50;43.00;;;;;12.17;51.45;99482.38;5054839;28;45650;-79
2022/03/31 07:31:09;;;;;;;;;55.50;44.00;;;;;12.17;51.34;99478.78;5041820;28;45840;-79
2022/03/31 07:33:35;;;;;;;;;52.50;41.75;;;;;12.26;51.71;99492.94;5047145;28;45853;-79
2022/03/31 07:36:03;;;;;;;;;55.00;43.75;;;;;12.24;52.03;99489.63;5049218;28;45922;-77
2022/03/31 07:38:28;;;;;;;;;50.75;41.25;;;;;12.17;51.68;99495.28;5050309;28;45716;-78
2022/03/31 07:40:55;;;;;;;;;55.25;43.25;;;;;11.99;52.13;99493.59;5030944;28;46115;-77
2022/03/31 07:43:20;;;;;;;;;54.25;43.00;;;;;12.00;52.70;99506.28;5040707;28;45445;-77
2022/03/31 07:45:47;;;;;;;;;57.50;43.25;;;;;11.93;53.17;99508.34;5041936;28;45643;-78
2022/03/31 07:48:15;;;;;;;;;58.25;44.25;;;;;11.79;53.56;99505.88;5046916;28;45815;-80
2022/03/31 07:50:41;;;;;;;;;49.00;39.25;;;;;11.67;55.06;99513.34;5040049;28;45738;-78
2022/03/31 07:53:09;;;;;;;;;48.00;37.75;;;;;11.43;55.00;99516.19;5044715;28;45733;-76
2022/03/31 07:55:35;;;;;;;;;35.33;31.00;;;;;11.25;55.40;99516.41;5032610;28;45523;-77
2022/03/31 07:58:00;;;;;;;;;27.33;25.00;;;;;11.21;54.82;99531.69;5047905;28;45525;-74
2022/03/31 08:00:25;;;;;;;;;25.00;22.67;;;;;11.00;55.02;99531.25;5017075;28;47079;-75
2022/03/31 08:02:52;;;;;;;;;15.67;15.67;;;;;10.76;55.16;99514.00;5046680;28;45764;-75
2022/03/31 08:05:23;;;;;;;;;16.67;14.00;;;;;10.74;54.60;99549.88;5050182;28;45583;-76
2022/03/31 08:07:49;;;;;;;;;20.00;15.33;;;;;10.65;54.50;99545.03;5047895;28;45965;-78
2022/03/31 08:10:15;;;;;;;;;15.00;14.67;;;;;10.41;53.91;99539.53;5052218;28;46856;-77
2022/03/31 08:12:41;;;;;;;;;14.67;13.33;;;;;10.27;54.26;99536.16;5050211;28;45902;-77
2022/03/31 08:15:09;;;;;;;;;14.33;13.67;;;;;10.14;53.80;99550.09;5024694;28;45589;-75
2022/03/31 08:17:34;;;;;;;;;10.00;9.67;;;;;9.99;53.49;99556.84;5044195;28;45620;-74
2022/03/31 08:20:00;;;;;;;;;8.33;8.33;;;;;9.98;53.11;99557.88;5053281;28;46348;-75
2022/03/31 08:22:32;;;;;;;;;10.67;10.67;;;;;9.93;53.07;99565.16;5050291;28;45667;-74
2022/03/31 08:25:00;;;;;;;;;9.00;8.00;;;;;9.87;52.71;99569.66;5046793;28;45482;-73
2022/03/31 08:27:26;;;;;;;;;4.67;4.00;;;;;9.79;52.81;99557.16;5033369;28;45751;-75
2022/03/31 08:29:51;;;;;;;;;8.00;8.00;;;;;9.74;53.27;99564.38;5041562;28;46164;-76
2022/03/31 08:32:17;;;;;;;;;8.00;7.00;;;;;9.67;53.48;99568.06;5042960;28;45425;-74
2022/03/31 08:34:45;;;;;;;;;7.00;7.00;;;;;9.49;53.36;99581.75;5049889;28;45927;-77
2022/03/31 08:37:11;;;;;;;;;6.67;6.67;;;;;9.37;53.13;99576.22;5042561;28;45504;-75
2022/03/31 08:39:37;;;;;;;;;7.00;6.33;;;;;9.32;53.67;99587.84;5050033;28;45958;-80
2022/03/31 08:42:06;;;;;;;;;6.33;5.33;;;;;9.21;53.55;99594.13;5049490;28;45446;-77
2022/03/31 08:44:33;;;;;;;;;8.33;8.33;;;;;9.16;54.09;99594.81;5032137;28;45756;-80
2022/03/31 08:46:59;;;;;;;;;9.67;7.00;;;;;9.23;54.25;99604.81;5049353;28;45802;-78
2022/03/31 08:49:24;;;;;;;;;9.33;6.00;;;;;9.17;54.48;99612.03;5030817;28;47159;-78
2022/03/31 08:51:51;;;;;;;;;7.00;5.00;;;;;9.11;54.22;99624.72;5053998;28;45536;-80
2022/03/31 08:54:16;;;;;;;;;6.00;6.00;;;;;9.05;53.83;99620.16;5050870;28;45647;-80
2022/03/31 08:56:41;;;;;;;;;6.00;6.00;;;;;8.95;53.56;99628.91;5050478;28;46244;-80
2022/03/31 08:59:07;;;;;;;;;6.00;6.00;;;;;8.81;55.37;99627.34;5032473;28;45879;-78
2022/03/31 09:01:33;;;;;;;;;6.00;6.00;;;;;8.76;54.96;99638.97;5050675;28;45859;-81
2022/03/31 09:04:00;;;;;;;;;4.33;4.33;;;;;8.73;55.46;99625.75;5034300;28;45383;-77
2022/03/31 09:06:30;;;;;;;;;4.33;4.00;;;;;8.68;55.24;99646.59;5048366;28;45529;-76
2022/03/31 09:09:01;;;;;;;;;4.00;4.00;;;;;8.55;54.62;99651.13;5039822;28;46829;-74
2022/03/31 09:11:32;;;;;;;;;7.00;7.00;;;;;8.34;55.41;99638.66;5048057;28;45922;-75
2022/03/31 09:14:00;;;;;;;;;3.67;3.67;;;;;8.36;56.36;99665.75;5052495;28;46043;-78
2022/03/31 09:16:29;;;;;;;;;5.67;4.00;;;;;8.30;56.02;99668.28;5052322;28;45762;-76
2022/03/31 09:19:03;;;;;;;;;8.33;7.33;;;;;8.34;56.09;99667.84;5028696;28;48041;-78
2022/03/31 09:21:30;;;;;;;;;6.33;6.33;;;;;8.28;55.42;99675.88;5035213;28;45853;-78
2022/03/31 09:23:56;;;;;;;;;3.67;3.67;;;;;8.28;55.41;99681.34;5051128;28;45834;-75
2022/03/31 09:26:22;;;;;;;;;4.00;4.00;;;;;8.29;56.03;99685.75;5050270;28;45715;-80
2022/03/31 09:28:50;;;;;;;;;5.67;4.00;;;;;8.25;55.65;99689.97;5048779;28;47966;-77
2022/03/31 09:31:34;;;;;;;;;4.00;4.00;;;;;8.20;56.08;99697.97;5051599;28;45486;-75
2022/03/31 09:33:59;;;;;;;;;8.67;8.33;;;;;8.16;55.57;99694.03;5049993;28;45462;-76
2022/03/31 09:36:34;;;;;;;;;6.00;4.00;;;;;8.11;56.14;99693.84;5045997;28;45973;-77
2022/03/31 09:39:03;;;;;;;;;2.67;2.67;;;;;8.12;55.63;99703.72;5044637;28;45514;-79
2022/03/31 09:41:31;;;;;;;;;5.00;5.00;;;;;8.08;56.55;99697.88;5029133;28;46243;-78
2022/03/31 09:44:00;;;;;;;;;5.00;5.00;;;;;8.15;57.06;99707.91;5047870;28;45680;-78
2022/03/31 09:46:27;;;;;;;;;5.00;4.67;;;;;8.17;55.17;99706.59;5049800;28;45707;-79
2022/03/31 09:48:53;;;;;;;;;6.00;5.00;;;;;8.31;57.53;99718.31;5042751;28;45566;-79
2022/03/31 09:51:21;;;;;;;;;5.00;5.00;;;;;8.34;55.72;99709.69;5040804;28;45564;-75
2022/03/31 09:53:51;;;;;;;;;5.00;4.00;;;;;8.46;55.59;99712.59;5043161;28;45708;-79
2022/03/31 09:56:19;;;;;;;;;4.00;4.00;;;;;8.56;55.80;99712.94;5044005;28;45568;-75
2022/03/31 09:58:47;;;;;;;;;4.33;4.33;;;;;8.62;56.11;99716.66;5050121;28;46511;-82
2022/03/31 10:01:16;;;;;;;;;4.00;3.00;;;;;8.80;53.88;99718.63;5036913;28;45525;-79
2022/03/31 10:03:43;;;;;;;;;5.00;5.00;;;;;8.91;53.76;99698.75;5036488;28;45941;-78
2022/03/31 10:06:08;;;;;;;;;4.67;3.67;;;;;9.10;53.55;99709.72;5032777;28;45720;-79
2022/03/31 10:08:40;;;;;;;;;3.67;3.67;;;;;9.14;53.58;99710.97;5031874;28;45941;-80
2022/03/31 10:11:07;;;;;;;;;4.33;4.33;;;;;9.16;53.50;99704.22;5033326;28;46046;-77
2022/03/31 10:13:53;;;;;;;;;5.00;3.00;;;;;9.44;53.64;99711.06;5022991;28;45702;-77
2022/03/31 10:16:31;;;;;;;;;5.00;5.00;;;;;9.64;52.65;99718.22;5034643;28;45603;-80
2022/03/31 10:18:56;;;;;;;;;2.00;2.00;;;;;9.76;52.35;99718.28;5034258;28;46095;-80
2022/03/31 10:21:27;;;;;;;;;2.67;2.00;;;;;9.95;52.22;99710.91;5016798;28;45600;-80
2022/03/31 10:26:36;;;;;;;;;2.67;2.67;;;;;10.19;50.09;99723.63;5033315;28;45679;-80
2022/03/31 10:29:13;;;;;;;;;4.00;4.00;;;;;10.30;51.54;99711.06;5032034;28;46447;-76
2022/03/31 10:31:42;;;;;;;;;3.00;3.00;;;;;10.38;50.96;99693.50;5032383;28;45501;-77
2022/03/31 10:34:09;;;;;;;;;2.67;2.67;;;;;10.70;49.19;99709.66;5031462;28;45694;-76
2022/03/31 10:36:48;;;;;;;;;2.67;2.67;;;;;10.67;49.31;99699.16;5035461;28;45793;-76
2022/03/31 10:39:22;;;;;;;;;2.00;2.00;;;;;10.82;48.71;99720.66;5034883;28;45771;-82
2022/03/31 10:42:00;;;;;;;;;1.67;1.67;;;;;10.74;47.94;99724.56;5047032;28;45771;-81
2022/03/31 10:44:26;;;;;;;;;2.00;2.00;;;;;10.65;48.63;99721.34;5040161;28;45656;-78
2022/03/31 10:47:05;;;;;;;;;4.67;3.00;;;;;10.66;49.07;99712.03;5041081;28;45862;-75
2022/03/31 10:49:32;;;;;;;;;3.00;3.00;;;;;10.79;48.12;99716.47;5044596;28;45933;-76
2022/03/31 10:51:59;;;;;;;;;3.00;3.00;;;;;10.77;46.45;99713.13;5043434;28;45453;-78
2022/03/31 10:54:30;;;;;;;;;3.00;3.00;;;;;10.70;46.42;99706.91;5044523;28;45901;-77
2022/03/31 10:57:15;;;;;;;;;2.00;2.00;;;;;10.67;46.89;99710.13;5040086;28;45612;-79
2022/03/31 10:59:43;;;;;;;;;4.67;3.67;;;;;10.52;47.20;99692.19;5040352;28;46193;-80
2022/03/31 11:02:11;;;;;;;;;3.00;3.00;;;;;10.66;47.56;99700.22;5043134;28;45438;-80
2022/03/31 11:04:49;;;;;;;;;3.00;2.33;;;;;10.78;47.59;99707.41;5043007;28;45845;-81
2022/03/31 11:07:16;;;;;;;;;4.33;4.33;;;;;10.93;47.39;99709.69;5042969;28;45676;-81
2022/03/31 11:09:43;;;;;;;;;5.33;4.33;;;;;10.93;47.98;99682.25;5044030;28;45607;-80
2022/03/31 11:12:23;;;;;;;;;3.00;3.00;;;;;11.13;48.01;99678.34;5031196;28;45855;-80
2022/03/31 11:15:12;;;;;;;;;5.00;5.00;;;;;11.43;46.79;99700.13;5038519;28;45550;-79
2022/03/31 11:17:41;;;;;;;;;6.33;4.00;;;;;11.48;45.64;99703.03;5024793;28;45868;-79
2022/03/31 11:20:22;;;;;;;;;3.00;3.00;;;;;11.37;47.45;99714.00;5029403;28;47250;-76
2022/03/31 11:22:54;;;;;;;;;3.67;3.67;;;;;11.28;46.22;99705.28;5043884;28;45453;-74
2022/03/31 11:25:21;;;;;;;;;5.00;3.00;;;;;11.28;45.33;99714.34;5043354;28;45905;-76
2022/03/31 11:27:50;;;;;;;;;6.00;5.00;;;;;11.24;46.14;99693.13;5043978;28;45768;-76
2022/03/31 11:30:18;;;;;;;;;4.00;4.00;;;;;11.42;46.49;99708.63;5047328;28;45969;-75
2022/03/31 11:32:45;;;;;;;;;3.00;3.00;;;;;11.52;45.96;99684.13;5045253;28;45944;-75
2022/03/31 11:35:17;;;;;;;;;5.33;5.33;;;;;11.93;46.48;99695.16;5051918;28;45532;-75
2022/03/31 11:38:03;;;;;;;;;4.67;4.67;;;;;12.32;45.36;99704.47;5044089;28;45967;-75
2022/03/31 11:40:33;;;;;;;;;3.00;3.00;;;;;12.59;45.31;99694.75;5045206;28;45710;-79
2022/03/31 11:43:00;;;;;;;;;5.00;5.00;;;;;12.70;43.00;99702.13;5048398;28;45949;-79
2022/03/31 11:45:33;;;;;;;;;3.00;3.00;;;;;12.64;41.23;99692.13;5040978;28;45849;-80
2022/03/31 11:48:05;;;;;;;;;3.00;3.00;;;;;12.38;42.46;99705.41;5049269;28;45709;-79
2022/03/31 11:50:32;;;;;;;;;3.00;3.00;;;;;12.12;42.22;99696.66;5047504;28;46460;-81
2022/03/31 11:53:00;;;;;;;;;8.00;5.00;;;;;12.01;42.62;99687.38;5045570;28;45544;-79
2022/03/31 11:55:25;;;;;;;;;4.00;3.67;;;;;12.03;42.74;99698.13;5046595;28;46003;-79
2022/03/31 11:57:56;;;;;;;;;3.33;3.33;;;;;11.94;43.38;99710.59;5038683;28;45489;-79
2022/03/31 12:00:23;;;;;;;;;3.67;3.67;;;;;11.93;42.50;99706.16;5014677;28;46608;-76
2022/03/31 12:03:03;;;;;;;;;3.00;3.00;;;;;11.87;43.24;99699.72;5021339;28;45839;-76
2022/03/31 12:05:30;;;;;;;;;3.00;3.00;;;;;12.04;43.11;99713.56;5012832;28;45887;-76
2022/03/31 12:07:57;;;;;;;;;4.00;4.00;;;;;12.24;42.42;99710.34;5030065;28;46019;-77
2022/03/31 12:10:23;;;;;;;;;4.00;3.00;;;;;12.25;41.48;99716.72;5041322;28;46622;-76
2022/03/31 12:12:51;;;;;;;;;5.00;5.00;;;;;12.25;42.32;99712.03;5039207;28;45805;-75
2022/03/31 12:15:30;;;;;;;;;5.00;4.00;;;;;12.24;42.04;99731.53;5041524;28;45988;-78
2022/03/31 12:18:00;;;;;;;;;3.67;3.00;;;;;12.10;42.90;99728.22;5024467;28;46358;-75
2022/03/31 12:20:30;;;;;;;;;6.00;5.00;;;;;12.21;43.12;99724.59;5041830;28;45543;-74
2022/03/31 12:22:56;;;;;;;;;4.67;4.67;;;;;12.25;43.60;99713.97;5035165;28;45883;-73
2022/03/31 12:25:32;;;;;;;;;5.33;5.00;;;;;12.47;42.81;99719.56;5039720;28;45450;-75
2022/03/31 12:28:03;;;;;;;;;5.00;3.00;;;;;12.83;42.85;99712.81;5018703;28;45970;-78
2022/03/31 12:30:50;;;;;;;;;5.33;4.67;;;;;13.33;41.40;99724.88;5039407;28;46514;-80
2022/03/31 12:33:22;;;;;;;;;3.67;3.00;;;;;13.43;39.93;99726.97;5041902;28;45790;-79
2022/03/31 12:36:14;;;;;;;;;7.00;6.00;;;;;13.30;39.70;99717.13;5038198;28;45751;-80
2022/03/31 12:38:42;;;;;;;;;3.00;3.00;;;;;13.19;38.47;99721.63;5041502;28;45889;-79
2022/03/31 12:41:35;;;;;;;;;4.67;4.67;;;;;13.03;38.85;99722.47;5037502;28;45551;-79
2022/03/31 12:44:15;;;;;;;;;4.33;4.33;;;;;12.96;40.00;99710.78;5040359;28;45993;-80
2022/03/31 12:46:44;;;;;;;;;5.67;4.67;;;;;12.95;38.98;99706.38;5037858;28;45766;-80
2022/03/31 12:49:12;;;;;;;;;3.67;3.67;;;;;13.04;40.27;99715.91;5042779;28;45797;-80
2022/03/31 12:51:48;;;;;;;;;4.00;3.00;;;;;13.12;39.96;99709.13;5040785;28;46518;-79
2022/03/31 12:54:29;;;;;;;;;4.00;4.00;;;;;13.32;40.78;99709.41;5022318;28;46192;-77